Williamsport, Tennessee
Current Conditions -  °F | °C
As of 6:53 PM on Saturday 20 Dec 2014 (Local Time) from KBNA Reporting Station
Broken Clouds Broken Clouds  
Wind Chill: 30°   Ceiling: 11000
Heat Index: 36°   Visibility: 10mi
Dew Point: 28°   Wind: 7mph
Humidity: 73%   Direction: 10°N
Pressure: 30.26"   Gusts: NA
Location:  35.69°N, 87.22°W
Report Text: KBNA 210053Z 01006KT 10SM BKN110 02/M02 A3026 RMK AO2 SLP253 T00221022
Loading
Personal Weather Stations






























Interactive Weather Map New forecast layout! Learn more

10-Day Weather Forecast

Advertisements
Track Severe Weather on mobile